Juan Santamaria International Airport
MROC : now visible

Airfield :











YOU CAN JOIN US ON...

 
LOGIN :

Register | Disclaimer

   EN    FR    IT 

 









Legend :    VFR   Marginal VFR   IFR   Intensive IFR   Very Intensive IFR
Visi :
Ceiling :
>= 8 km
>= 3000ft
5 to 8 km
1000 to 3000 ft
1500m to 5 km
500 to 1000 ft
800 to 1500m
200 to 500 ft
< 800m
< 200 ft
Symbols :   Thunderstorms  Fog  Heavy snow  Heavy precipitations  Wind > 20 kt






- Airport Elevation : 3021 ft
- IATA code : SJO


MROC - Juan Santamaria International

CURRENT METAR :
  • 011600Z 09015G25KT 070V140 9999 FEW040 SCT200 27/15 A3001 NOSIG

EXPIRED METARs :
  • 011500Z 08012KT 9999 FEW045 BKN200 25/16 A3001 NOSIG
  • 011400Z 10011KT 9999 FEW045 BKN200 24/17 A3000 NOSIG
  • 011300Z VRB03KT 9999 FEW045 BKN200 22/16 A2999 NOSIG
  • 011200Z 12013KT 090V150 9999 FEW045 BKN250 21/16 A2996 NOSIG
  • 011100Z 06004KT 010V160 9999 FEW035 SCT160 21/16 A2996 NOSIG

TAF MROC
Valid from the 01 at 12:00 until the 02 at 12:00 UTC


011100Z 0112/0212 09008KT 9999 FEW040 SCT200 TX29/0118Z TN20/0210Z
TEMPO 0118/0124 24006KT 9999 BKN040
TEMPO 0203/0212 10013G23KT
MHTG FIR / North America



MET'MAP, your aeronautical weather chart ! - Copyright ORBIFLY December 2007 - Disclaimer

ORBIFLY MET'MAP TEAM :

Programming & Development : Alexandra Zaïnal
Original concept : Baudouin d'Aumeries
Technical & hardware support : Manuel Goepfert
Assistance : Marc-Olivier Méhu




SOURCES & CREDITS :

   NOAA       Earth
Advisory